Accueil
METAR-TAF:

METAR-TAF

Aéroports :

Togiak Village, Alaska, États-Unis

latitude: 59-03N, longitude: 160-24W, altitude: 6 m

Observation

Le bulletin a été fait il y a 52 minutes, à 22:56 UTC
Vent 3 kt de nord
Température -16°C
Humidité 84%
Pression 1014 hPa
Visibilité: 16.1 km
Quelques nuages à une hauteur de 2100 ft
Ciel couvert à une hauteur de 2700 ft

METAR: PATG 222256Z AUTO 36003KT 10SM FEW021 OVC027 M16/M18 A2994 RMK AO2 SLP236 T11611178 FZRANO

Heure: 14:48 (23:48 UTC)


TAF: absent

Observations et prévisions météorologiques de plus de 4000 aéroports (messages METAR et TAF).

Les stations disponibles sont représentées par des disques jaunes et rouges sur la carte.

Passer la souris dessus pour voir le nom de la station.

Cliquer dessus pour voir les observations et prévisions météorologiques.

Pour changer de carte: cliquez sur les boutons verts avec une croix noire pour zoomer, sur le bouton vert avec un tiret pour effectuer un zoom arrière, ou sur les flèches vertes pour les cartes adjacentes.


METAR-TAF: